Temp: 8.3°C   Baro: 1006.3mb
  Wind: 0.0mph   Dir: N (358°)
  Rain: 0.0mm (0.0mm/hr)
  Solar: 21W/m2  Hum: 85%
 
Bath Spa Weather Station Historical Data
Daily Summary for November 09, 2019 Units:  Both    English   Metric
Daily Weekly Monthly Yearly Custom
  High: Low: Average:
Temperature: 44.7 °F /  7.1 °C 29.7 °F /  -1.3 °C 37.8 °F /  3.2 °C
Dew Point: 43.1 °F /  6.2 °C 27.7 °F /  -2.4 °C 35.9 °F /  2.2 °C
Humidity: 95% 89% 93%
Wind Speed: 5.5mph /  8.9km/h - 1.5mph /  2.4km/h
Wind Gust: 12mph /  19.3km/h - -
Wind- - SW
Pressure: 29.92 in /  1013.1 hPa 29.54 in /  1000.2 hPa -
Precipitation: 0.30 in /  7.62 mm    
Historical Graphs
 
 
Tabular Data for November 09, 2019
Time Temperature Dew Point Pressure Wind Wind Speed Wind Gust Humidity Rainfall Rate (Hourly) solar
00:04 34.8 °F /  1.6 °C 31.9 °F /  -0.1 °C 29.91in /  1012.8hPa NW 0.1mph /  0.2km/h 1mph /  1.6km/h 89% 0.00in /  0mm 0 W/m2
00:09 34.8 °F /  1.6 °C 31.9 °F /  -0.1 °C 29.92in /  1013.1hPa NW 0.1mph /  0.2km/h 2mph /  3.2km/h 89% 0.00in /  0mm 0 W/m2
00:14 34.6 °F /  1.4 °C 31.7 °F /  -0.2 °C 29.92in /  1013.1hPa NW 0.7mph /  1.1km/h 3mph /  4.8km/h 89% 0.00in /  0mm 0 W/m2
00:19 34.3 °F /  1.3 °C 31.5 °F /  -0.3 °C 29.92in /  1013.1hPa Calm   1mph /  1.6km/h 89% 0.00in /  0mm 0 W/m2
00:24 34.2 °F /  1.2 °C 31.3 °F /  -0.4 °C 29.92in /  1013.1hPa Calm     89% 0.00in /  0mm 0 W/m2
00:29 34.2 °F /  1.2 °C 31.3 °F /  -0.4 °C 29.92in /  1013.1hPa Calm   1mph /  1.6km/h 89% 0.00in /  0mm 0 W/m2
00:34 34 °F /  1.1 °C 31.1 °F /  -0.5 °C 29.92in /  1013.1hPa NW 0.1mph /  0.2km/h 1mph /  1.6km/h 89% 0.00in /  0mm 0 W/m2
00:39 33.8 °F /  1 °C 30.9 °F /  -0.6 °C 29.92in /  1013.1hPa Calm     89% 0.00in /  0mm 0 W/m2
00:44 33.5 °F /  0.8 °C 30.6 °F /  -0.8 °C 29.92in /  1013.1hPa Calm     89% 0.00in /  0mm 0 W/m2
00:49 33.4 °F /  0.8 °C 30.6 °F /  -0.8 °C 29.91in /  1012.8hPa Calm     89% 0.00in /  0mm 0 W/m2
00:54 33.3 °F /  0.7 °C 30.4 °F /  -0.9 °C 29.91in /  1012.8hPa Calm     89% 0.00in /  0mm 0 W/m2
00:59 33.1 °F /  0.6 °C 30.2 °F /  -1 °C 29.91in /  1012.8hPa Calm     89% 0.00in /  0mm 0 W/m2
01:04 33.1 °F /  0.6 °C 30.3 °F /  -0.9 °C 29.91in /  1012.8hPa Calm     89.5% 0.00in /  0mm 0 W/m2
01:09 32.9 °F /  0.5 °C 30.4 °F /  -0.9 °C 29.91in /  1012.8hPa Calm     90% 0.00in /  0mm 0 W/m2
01:14 32.7 °F /  0.4 °C 30.2 °F /  -1 °C 29.91in /  1012.8hPa Calm   1mph /  1.6km/h 90% 0.00in /  0mm 0 W/m2
01:19 32.7 °F /  0.4 °C 30.2 °F /  -1 °C 29.91in /  1012.8hPa NW 0.2mph /  0.3km/h 2mph /  3.2km/h 90% 0.00in /  0mm 0 W/m2
01:24 32.4 °F /  0.2 °C 29.9 °F /  -1.2 °C 29.91in /  1012.8hPa NW 0.3mph /  0.5km/h 1mph /  1.6km/h 90% 0.00in /  0mm 0 W/m2
01:29 32.4 °F /  0.2 °C 29.9 °F /  -1.2 °C 29.91in /  1012.8hPa NW 0.2mph /  0.3km/h 1mph /  1.6km/h 90% 0.00in /  0mm 0 W/m2
01:34 32.5 °F /  0.3 °C 30 °F /  -1.1 °C 29.91in /  1012.8hPa Calm   1mph /  1.6km/h 90% 0.00in /  0mm 0 W/m2
01:39 32.4 °F /  0.2 °C 29.8 °F /  -1.2 °C 29.91in /  1012.8hPa Calm     90% 0.00in /  0mm 0 W/m2
01:44 32.2 °F /  0.1 °C 29.7 °F /  -1.3 °C 29.91in /  1012.8hPa Calm     90% 0.00in /  0mm 0 W/m2
01:49 32.2 °F /  0.1 °C 29.7 °F /  -1.3 °C 29.90in /  1012.4hPa Calm   1mph /  1.6km/h 90% 0.00in /  0mm 0 W/m2
01:54 32.1 °F /  0.1 °C 29.7 °F /  -1.3 °C 29.90in /  1012.4hPa Calm     90.8% 0.00in /  0mm 0 W/m2
01:59 32 °F /  0 °C 29.7 °F /  -1.3 °C 29.90in /  1012.4hPa Calm     91% 0.00in /  0mm 0 W/m2
02:04 31.9 °F /  -0.1 °C 29.6 °F /  -1.3 °C 29.90in /  1012.4hPa Calm     91% 0.00in /  0mm 0 W/m2
02:09 31.8 °F /  -0.1 °C 29.5 °F /  -1.4 °C 29.89in /  1012.1hPa Calm     91% 0.00in /  0mm 0 W/m2
02:14 31.6 °F /  -0.2 °C 29.3 °F /  -1.5 °C 29.89in /  1012.1hPa Calm     91% 0.00in /  0mm 0 W/m2
02:19 31.5 °F /  -0.3 °C 29.2 °F /  -1.6 °C 29.89in /  1012.1hPa Calm     91% 0.00in /  0mm 0 W/m2
02:24 31.6 °F /  -0.2 °C 29.2 °F /  -1.6 °C 29.89in /  1012.1hPa Calm     91% 0.00in /  0mm 0 W/m2
02:29 31.6 °F /  -0.2 °C 29.2 °F /  -1.6 °C 29.89in /  1012.1hPa Calm     91% 0.00in /  0mm 0 W/m2
02:34 31.5 °F /  -0.3 °C 29.1 °F /  -1.6 °C 29.89in /  1012.1hPa Calm     91% 0.00in /  0mm 0 W/m2
02:39 31.5 °F /  -0.3 °C 29.1 °F /  -1.6 °C 29.88in /  1011.7hPa Calm     91% 0.00in /  0mm 0 W/m2
02:44 31.5 °F /  -0.3 °C 29.1 °F /  -1.6 °C 29.88in /  1011.7hPa Calm     91% 0.00in /  0mm 0 W/m2
02:49 31.5 °F /  -0.3 °C 29.1 °F /  -1.6 °C 29.88in /  1011.7hPa Calm     91% 0.00in /  0mm 0 W/m2
02:54 31.4 °F /  -0.3 °C 29 °F /  -1.7 °C 29.88in /  1011.7hPa Calm     91% 0.00in /  0mm 0 W/m2
02:59 31.3 °F /  -0.4 °C 28.9 °F /  -1.7 °C 29.88in /  1011.7hPa Calm     91% 0.00in /  0mm 0 W/m2
03:04 31.4 °F /  -0.3 °C 29 °F /  -1.7 °C 29.87in /  1011.4hPa Calm     91% 0.00in /  0mm 0 W/m2
03:09 31.2 °F /  -0.4 °C 28.9 °F /  -1.7 °C 29.87in /  1011.4hPa Calm     91% 0.00in /  0mm 0 W/m2
03:14 30.9 °F /  -0.6 °C 28.6 °F /  -1.9 °C 29.87in /  1011.4hPa Calm     91% 0.00in /  0mm 0 W/m2
03:19 30.9 °F /  -0.6 °C 28.6 °F /  -1.9 °C 29.87in /  1011.4hPa Calm     91% 0.00in /  0mm 0 W/m2
03:24 30.9 °F /  -0.6 °C 28.6 °F /  -1.9 °C 29.87in /  1011.4hPa Calm     91% 0.00in /  0mm 0 W/m2
03:29 31 °F /  -0.6 °C 28.8 °F /  -1.8 °C 29.86in /  1011.1hPa Calm     91.4% 0.00in /  0mm 0 W/m2
03:34 31 °F /  -0.6 °C 28.9 °F /  -1.7 °C 29.86in /  1011.1hPa Calm     91.7% 0.00in /  0mm 0 W/m2
03:39 30.9 °F /  -0.6 °C 28.9 °F /  -1.7 °C 29.86in /  1011.1hPa Calm     92% 0.00in /  0mm 0 W/m2
03:44 30.7 °F /  -0.7 °C 28.8 °F /  -1.8 °C 29.86in /  1011.1hPa Calm     92% 0.00in /  0mm 0 W/m2
03:49 30.8 °F /  -0.7 °C 28.9 °F /  -1.7 °C 29.86in /  1011.1hPa Calm     92% 0.00in /  0mm 0 W/m2
03:54 30.9 °F /  -0.6 °C 28.9 °F /  -1.7 °C 29.86in /  1011.1hPa Calm     92% 0.00in /  0mm 0 W/m2
03:59 30.8 °F /  -0.7 °C 28.8 °F /  -1.8 °C 29.86in /  1011.1hPa Calm     92% 0.00in /  0mm 0 W/m2
04:04 30.8 °F /  -0.7 °C 28.8 °F /  -1.8 °C 29.85in /  1010.7hPa Calm     92% 0.00in /  0mm 0 W/m2
04:09 30.7 °F /  -0.7 °C 28.7 °F /  -1.8 °C 29.85in /  1010.7hPa Calm     92% 0.00in /  0mm 0 W/m2
04:14 30.6 °F /  -0.8 °C 28.6 °F /  -1.9 °C 29.85in /  1010.7hPa Calm     92% 0.00in /  0mm 0 W/m2
04:19 30.6 °F /  -0.8 °C 28.6 °F /  -1.9 °C 29.85in /  1010.7hPa Calm     92% 0.00in /  0mm 0 W/m2
04:24 30.6 °F /  -0.8 °C 28.7 °F /  -1.8 °C 29.85in /  1010.7hPa Calm     92% 0.00in /  0mm 0 W/m2
04:29 30.7 °F /  -0.7 °C 28.7 °F /  -1.8 °C 29.85in /  1010.7hPa Calm     92% 0.00in /  0mm 0 W/m2
04:34 30.6 °F /  -0.8 °C 28.6 °F /  -1.9 °C 29.84in /  1010.4hPa Calm     92% 0.00in /  0mm 0 W/m2
04:39 30.6 °F /  -0.8 °C 28.6 °F /  -1.9 °C 29.84in /  1010.4hPa Calm   1mph /  1.6km/h 92% 0.00in /  0mm 0 W/m2
04:44 30.4 °F /  -0.9 °C 28.4 °F /  -2 °C 29.84in /  1010.4hPa Calm     92% 0.00in /  0mm 0 W/m2
04:49 30.4 °F /  -0.9 °C 28.4 °F /  -2 °C 29.83in /  1010hPa Calm     92% 0.00in /  0mm 0 W/m2
04:54 30.4 °F /  -0.9 °C 28.4 °F /  -2 °C 29.83in /  1010hPa Calm     92% 0.00in /  0mm 0 W/m2
04:59 30.4 °F /  -0.9 °C 28.4 °F /  -2 °C 29.83in /  1010hPa Calm     92% 0.00in /  0mm 0 W/m2
05:04 30.3 °F /  -0.9 °C 28.3 °F /  -2.1 °C 29.83in /  1010hPa Calm     92% 0.00in /  0mm 0 W/m2
05:09 30.2 °F /  -1 °C 28.2 °F /  -2.1 °C 29.82in /  1009.7hPa Calm     92% 0.00in /  0mm 0 W/m2
05:14 30.2 °F /  -1 °C 28.2 °F /  -2.1 °C 29.82in /  1009.7hPa Calm     92% 0.00in /  0mm 0 W/m2
05:19 30 °F /  -1.1 °C 28 °F /  -2.2 °C 29.81in /  1009.4hPa Calm   1mph /  1.6km/h 92% 0.00in /  0mm 0 W/m2
05:24 30 °F /  -1.1 °C 28 °F /  -2.2 °C 29.81in /  1009.4hPa Calm   1mph /  1.6km/h 92% 0.00in /  0mm 0 W/m2
05:29 29.8 °F /  -1.2 °C 27.9 °F /  -2.3 °C 29.81in /  1009.4hPa Calm     92% 0.00in /  0mm 0 W/m2
05:34 29.9 °F /  -1.2 °C 27.9 °F /  -2.3 °C 29.81in /  1009.4hPa Calm     92% 0.00in /  0mm 0 W/m2
05:39 29.9 °F /  -1.2 °C 28 °F /  -2.2 °C 29.80in /  1009hPa Calm     92.2% 0.00in /  0mm 0 W/m2
05:44 29.8 °F /  -1.2 °C 28 °F /  -2.2 °C 29.80in /  1009hPa Calm     93% 0.00in /  0mm 0 W/m2
05:49 29.8 °F /  -1.2 °C 28 °F /  -2.2 °C 29.80in /  1009hPa Calm     93% 0.00in /  0mm 0 W/m2
05:54 29.8 °F /  -1.2 °C 28 °F /  -2.2 °C 29.79in /  1008.7hPa Calm     93% 0.00in /  0mm 0 W/m2
05:59 29.8 °F /  -1.2 °C 27.9 °F /  -2.3 °C 29.80in /  1009hPa Calm     92.1% 0.00in /  0mm 0 W/m2
06:04 29.7 °F /  -1.3 °C 27.8 °F /  -2.3 °C 29.79in /  1008.7hPa Calm     92% 0.00in /  0mm 0 W/m2
06:09 29.7 °F /  -1.3 °C 27.7 °F /  -2.4 °C 29.79in /  1008.7hPa Calm     92.2% 0.00in /  0mm 0 W/m2
06:14 29.7 °F /  -1.3 °C 27.9 °F /  -2.3 °C 29.79in /  1008.7hPa Calm     92.8% 0.00in /  0mm 0 W/m2
06:19 29.7 °F /  -1.3 °C 27.9 °F /  -2.3 °C 29.79in /  1008.7hPa Calm     93% 0.00in /  0mm 0 W/m2
06:24 29.8 °F /  -1.2 °C 28 °F /  -2.2 °C 29.79in /  1008.7hPa Calm     93% 0.00in /  0mm 0 W/m2
06:29 29.8 °F /  -1.2 °C 28 °F /  -2.2 °C 29.79in /  1008.7hPa Calm     93% 0.00in /  0mm 0 W/m2
06:34 29.8 °F /  -1.2 °C 28 °F /  -2.2 °C 29.79in /  1008.7hPa Calm     93% 0.00in /  0mm 0 W/m2
06:39 29.8 °F /  -1.2 °C 28 °F /  -2.2 °C 29.78in /  1008.4hPa Calm   1mph /  1.6km/h 93% 0.00in /  0mm 0 W/m2
06:44 29.8 °F /  -1.2 °C 28 °F /  -2.2 °C 29.78in /  1008.4hPa Calm     93% 0.00in /  0mm 0 W/m2
06:49 29.8 °F /  -1.2 °C 28 °F /  -2.2 °C 29.78in /  1008.4hPa Calm     93% 0.00in /  0mm 0 W/m2
06:54 29.9 °F /  -1.2 °C 28.1 °F /  -2.2 °C 29.78in /  1008.4hPa NW 0.1mph /  0.2km/h 1mph /  1.6km/h 93% 0.00in /  0mm 0 W/m2
06:59 30 °F /  -1.1 °C 28.2 °F /  -2.1 °C 29.77in /  1008hPa NW 0.1mph /  0.2km/h 2mph /  3.2km/h 93% 0.00in /  0mm 0 W/m2
07:04 30.3 °F /  -0.9 °C 28.5 °F /  -1.9 °C 29.77in /  1008hPa NW 0.5mph /  0.8km/h 3mph /  4.8km/h 93% 0.00in /  0mm 0 W/m2
07:09 30.6 °F /  -0.8 °C 28.8 °F /  -1.8 °C 29.77in /  1008hPa NE 0.9mph /  1.4km/h 7mph /  11.3km/h 93% 0.00in /  0mm 0 W/m2
07:14 31.1 °F /  -0.5 °C 29.3 °F /  -1.5 °C 29.77in /  1008hPa ESE 1.3mph /  2.1km/h 7mph /  11.3km/h 93% 0.00in /  0mm 5 W/m2
07:19 32 °F /  0 °C 30.2 °F /  -1 °C 29.76in /  1007.7hPa ESE 2.1mph /  3.4km/h 7mph /  11.3km/h 93% 0.00in /  0mm 7 W/m2
07:24 32.8 °F /  0.4 °C 31 °F /  -0.6 °C 29.76in /  1007.7hPa ESE 1.9mph /  3.1km/h 7mph /  11.3km/h 93% 0.00in /  0mm 7 W/m2
07:29 33.3 °F /  0.7 °C 31.5 °F /  -0.3 °C 29.76in /  1007.7hPa ESE 0.8mph /  1.3km/h 5mph /  8km/h 93% 0.00in /  0mm 11 W/m2
07:34 33.4 °F /  0.8 °C 31.6 °F /  -0.2 °C 29.76in /  1007.7hPa East 1.7mph /  2.7km/h 9mph /  14.5km/h 93% 0.00in /  0mm 12 W/m2
07:39 33.4 °F /  0.8 °C 31.6 °F /  -0.2 °C 29.75in /  1007.3hPa East 1.3mph /  2.1km/h 7mph /  11.3km/h 93% 0.00in /  0mm 18 W/m2
07:44 33.6 °F /  0.9 °C 31.8 °F /  -0.1 °C 29.75in /  1007.3hPa East 1.2mph /  1.9km/h 8mph /  12.9km/h 93.2% 0.00in /  0mm 19 W/m2
07:49 33.9 °F /  1.1 °C 32.1 °F /  0.1 °C 29.75in /  1007.3hPa ESE 0.4mph /  0.6km/h 4mph /  6.4km/h 93% 0.00in /  0mm 21 W/m2
07:54 34.1 °F /  1.2 °C 32.3 °F /  0.2 °C 29.75in /  1007.3hPa ESE 2mph /  3.2km/h 9mph /  14.5km/h 93% 0.00in /  0mm 21 W/m2
07:59 34.5 °F /  1.4 °C 32.7 °F /  0.4 °C 29.74in /  1007hPa ESE 1.4mph /  2.3km/h 3mph /  4.8km/h 93% 0.00in /  0mm 25 W/m2
08:04 34.9 °F /  1.6 °C 33.1 °F /  0.6 °C 29.74in /  1007hPa ESE 0.7mph /  1.1km/h 4mph /  6.4km/h 93% 0.00in /  0mm 28 W/m2
08:09 34.9 °F /  1.6 °C 33.1 °F /  0.6 °C 29.73in /  1006.7hPa ESE 1mph /  1.6km/h 4mph /  6.4km/h 93% 0.00in /  0mm 32 W/m2
08:14 35 °F /  1.7 °C 33.2 °F /  0.7 °C 29.73in /  1006.7hPa ESE 0.6mph /  1km/h 3mph /  4.8km/h 93% 0.00in /  0mm 32 W/m2
08:19 35.1 °F /  1.7 °C 33.3 °F /  0.7 °C 29.72in /  1006.3hPa SE 2.5mph /  4km/h 7mph /  11.3km/h 93% 0.00in /  0mm 30 W/m2
08:24 35.3 °F /  1.8 °C 33.5 °F /  0.8 °C 29.72in /  1006.3hPa ESE 2.5mph /  4km/h 8mph /  12.9km/h 93% 0.00in /  0mm 35 W/m2
08:29 35.4 °F /  1.9 °C 33.6 °F /  0.9 °C 29.72in /  1006.3hPa ESE 2.2mph /  3.5km/h 5mph /  8km/h 93% 0.00in /  0mm 35 W/m2
08:34 35.7 °F /  2.1 °C 33.9 °F /  1.1 °C 29.72in /  1006.3hPa East 1.8mph /  2.9km/h 5mph /  8km/h 93% 0.00in /  0mm 30 W/m2
08:39 35.8 °F /  2.1 °C 34 °F /  1.1 °C 29.71in /  1006hPa East 2.3mph /  3.7km/h 7mph /  11.3km/h 93% 0.00in /  0mm 63 W/m2
08:44 35.8 °F /  2.1 °C 34 °F /  1.1 °C 29.71in /  1006hPa ESE 1.1mph /  1.8km/h 5mph /  8km/h 93% 0.00in /  0mm 81 W/m2
08:49 36 °F /  2.2 °C 34.2 °F /  1.2 °C 29.71in /  1006hPa SE 1.5mph /  2.4km/h 8mph /  12.9km/h 93% 0.00in /  0mm 81 W/m2
08:54 36 °F /  2.2 °C 34.2 °F /  1.2 °C 29.71in /  1006hPa SSE 1.1mph /  1.8km/h 8mph /  12.9km/h 93% 0.00in /  0mm 70 W/m2
08:59 36.2 °F /  2.3 °C 34.2 °F /  1.2 °C 29.70in /  1005.6hPa East 1.4mph /  2.3km/h 7mph /  11.3km/h 92.3% 0.00in /  0mm 60 W/m2
09:04 36.3 °F /  2.4 °C 34.2 °F /  1.2 °C 29.70in /  1005.6hPa ENE 0.8mph /  1.3km/h 6mph /  9.7km/h 92% 0.00in /  0mm 53 W/m2
09:09 36.3 °F /  2.4 °C 34.2 °F /  1.2 °C 29.70in /  1005.6hPa ENE 0.7mph /  1.1km/h 3mph /  4.8km/h 92% 0.00in /  0mm 56 W/m2
09:14 36.5 °F /  2.5 °C 34.3 °F /  1.3 °C 29.70in /  1005.6hPa ENE 1.7mph /  2.7km/h 6mph /  9.7km/h 92% 0.00in /  0mm 56 W/m2
09:19 36.7 °F /  2.6 °C 34.5 °F /  1.4 °C 29.70in /  1005.6hPa East 1.5mph /  2.4km/h 5mph /  8km/h 92% 0.00in /  0mm 53 W/m2
09:24 36.8 °F /  2.7 °C 34.6 °F /  1.4 °C 29.69in /  1005.3hPa ESE 2.7mph /  4.3km/h 9mph /  14.5km/h 92% 0.00in /  0mm 46 W/m2
09:29 36.9 °F /  2.7 °C 34.7 °F /  1.5 °C 29.68in /  1005hPa ESE 1.7mph /  2.7km/h 5mph /  8km/h 92% 0.00in /  0mm 60 W/m2
09:34 37 °F /  2.8 °C 34.8 °F /  1.6 °C 29.68in /  1005hPa ESE 2.6mph /  4.2km/h 7mph /  11.3km/h 91.5% 0.00in /  0mm 60 W/m2
09:39 37 °F /  2.8 °C 34.7 °F /  1.5 °C 29.67in /  1004.6hPa ESE 4mph /  6.4km/h 9mph /  14.5km/h 91% 0.00in /  0mm 46 W/m2
09:44 37.1 °F /  2.8 °C 34.8 °F /  1.6 °C 29.67in /  1004.6hPa ESE 2.6mph /  4.2km/h 10mph /  16.1km/h 91% 0.00in /  0mm 44 W/m2
09:49 37.2 °F /  2.9 °C 34.9 °F /  1.6 °C 29.67in /  1004.6hPa ESE 2.6mph /  4.2km/h 8mph /  12.9km/h 91% 0.00in /  0mm 40 W/m2
09:54 37.3 °F /  2.9 °C 35 °F /  1.7 °C 29.67in /  1004.6hPa SE 2.2mph /  3.5km/h 7mph /  11.3km/h 91% 0.00in /  0mm 40 W/m2
09:59 37.6 °F /  3.1 °C 35.2 °F /  1.8 °C 29.66in /  1004.3hPa SE 3.6mph /  5.8km/h 9mph /  14.5km/h 91% 0.00in /  0mm 35 W/m2
10:04 37.7 °F /  3.2 °C 35.3 °F /  1.8 °C 29.66in /  1004.3hPa SE 2.3mph /  3.7km/h 9mph /  14.5km/h 91% 0.00in /  0mm 26 W/m2
10:09 37.8 °F /  3.2 °C 35.4 °F /  1.9 °C 29.66in /  1004.3hPa ESE 1.9mph /  3.1km/h 5mph /  8km/h 91% 0.01in /  0.25mm 21 W/m2
10:14 37.8 °F /  3.2 °C 35.5 °F /  1.9 °C 29.66in /  1004.3hPa ESE 2.6mph /  4.2km/h 6mph /  9.7km/h 91% 0.01in /  0.25mm 19 W/m2
10:19 37.9 °F /  3.3 °C 35.6 °F /  2 °C 29.65in /  1003.9hPa ESE 3.2mph /  5.1km/h 7mph /  11.3km/h 91% 0.02in /  0.51mm 19 W/m2
10:24 38.1 °F /  3.4 °C 35.8 °F /  2.1 °C 29.65in /  1003.9hPa ESE 2.7mph /  4.3km/h 8mph /  12.9km/h 91% 0.02in /  0.51mm 18 W/m2
10:29 38.3 °F /  3.5 °C 36 °F /  2.2 °C 29.65in /  1003.9hPa ESE 2.3mph /  3.7km/h 8mph /  12.9km/h 91% 0.03in /  0.76mm 12 W/m2
10:34 38.5 °F /  3.6 °C 36.1 °F /  2.3 °C 29.65in /  1003.9hPa ESE 2.8mph /  4.5km/h 9mph /  14.5km/h 91% 0.04in /  1.02mm 9 W/m2
10:39 38.5 °F /  3.6 °C 36.1 °F /  2.3 °C 29.65in /  1003.9hPa ESE 2.6mph /  4.2km/h 6mph /  9.7km/h 91% 0.06in /  1.52mm 11 W/m2
10:44 38.5 °F /  3.6 °C 36.1 °F /  2.3 °C 29.64in /  1003.6hPa ESE 1.7mph /  2.7km/h 6mph /  9.7km/h 91% 0.07in /  1.78mm 16 W/m2
10:49 38.5 °F /  3.6 °C 36.1 °F /  2.3 °C 29.64in /  1003.6hPa SE 2.4mph /  3.9km/h 6mph /  9.7km/h 91% 0.09in /  2.29mm 19 W/m2
10:54 38.7 °F /  3.7 °C 36.4 °F /  2.4 °C 29.64in /  1003.6hPa SE 2.1mph /  3.4km/h 6mph /  9.7km/h 91.5% 0.11in /  2.79mm 21 W/m2
10:59 38.8 °F /  3.8 °C 36.7 °F /  2.6 °C 29.64in /  1003.6hPa ESE 2mph /  3.2km/h 8mph /  12.9km/h 92% 0.12in /  3.05mm 21 W/m2
11:04 39 °F /  3.9 °C 36.9 °F /  2.7 °C 29.63in /  1003.3hPa ESE 2.9mph /  4.7km/h 10mph /  16.1km/h 92% 0.13in /  3.3mm 18 W/m2
11:09 39.3 °F /  4.1 °C 37.1 °F /  2.8 °C 29.63in /  1003.3hPa ESE 2.4mph /  3.9km/h 10mph /  16.1km/h 92% 0.13in /  3.3mm 14 W/m2
11:14 39.4 °F /  4.1 °C 37.2 °F /  2.9 °C 29.63in /  1003.3hPa ESE 0.6mph /  1km/h 5mph /  8km/h 92% 0.14in /  3.56mm 14 W/m2
11:19 39.5 °F /  4.2 °C 37.3 °F /  2.9 °C 29.63in /  1003.3hPa ESE 0.8mph /  1.3km/h 4mph /  6.4km/h 92% 0.15in /  3.81mm 25 W/m2
11:24 39.6 °F /  4.2 °C 37.4 °F /  3 °C 29.63in /  1003.3hPa ESE 1.6mph /  2.6km/h 4mph /  6.4km/h 92% 0.15in /  3.81mm 28 W/m2
11:29 39.6 °F /  4.2 °C 37.4 °F /  3 °C 29.62in /  1002.9hPa ESE 1.5mph /  2.4km/h 5mph /  8km/h 92% 0.15in /  3.81mm 21 W/m2
11:34 39.6 °F /  4.2 °C 37.4 °F /  3 °C 29.62in /  1002.9hPa ESE 2.7mph /  4.3km/h 9mph /  14.5km/h 92% 0.16in /  4.06mm 26 W/m2
11:39 39.7 °F /  4.3 °C 37.6 °F /  3.1 °C 29.62in /  1002.9hPa ESE 3.1mph /  5km/h 9mph /  14.5km/h 92% 0.17in /  4.32mm 26 W/m2
11:44 39.7 °F /  4.3 °C 37.6 °F /  3.1 °C 29.61in /  1002.6hPa SE 2.1mph /  3.4km/h 8mph /  12.9km/h 92% 0.16in /  4.06mm 25 W/m2
11:49 39.9 °F /  4.4 °C 38.1 °F /  3.4 °C 29.61in /  1002.6hPa ESE 2.4mph /  3.9km/h 8mph /  12.9km/h 93% 0.15in /  3.81mm 33 W/m2
11:54 39.9 °F /  4.4 °C 38.1 °F /  3.4 °C 29.60in /  1002.3hPa ESE 2.2mph /  3.5km/h 7mph /  11.3km/h 93% 0.13in /  3.3mm 33 W/m2
11:59 40.1 °F /  4.5 °C 38.3 °F /  3.5 °C 29.60in /  1002.3hPa ESE 2.1mph /  3.4km/h 7mph /  11.3km/h 93% 0.12in /  3.05mm 35 W/m2
12:04 40.3 °F /  4.6 °C 38.5 °F /  3.6 °C 29.59in /  1001.9hPa East 1.6mph /  2.6km/h 5mph /  8km/h 93% 0.12in /  3.05mm 37 W/m2
12:09 40.5 °F /  4.7 °C 38.7 °F /  3.7 °C 29.59in /  1001.9hPa ESE 2.1mph /  3.4km/h 7mph /  11.3km/h 93% 0.12in /  3.05mm 35 W/m2
12:14 40.6 °F /  4.8 °C 38.8 °F /  3.8 °C 29.59in /  1001.9hPa ESE 2.1mph /  3.4km/h 7mph /  11.3km/h 93% 0.11in /  2.79mm 32 W/m2
12:19 40.6 °F /  4.8 °C 38.8 °F /  3.8 °C 29.58in /  1001.6hPa ESE 3.9mph /  6.3km/h 10mph /  16.1km/h 93% 0.10in /  2.54mm 30 W/m2
12:24 40.6 °F /  4.8 °C 38.8 °F /  3.8 °C 29.58in /  1001.6hPa ESE 2.4mph /  3.9km/h 10mph /  16.1km/h 93% 0.09in /  2.29mm 28 W/m2
12:29 40.8 °F /  4.9 °C 39 °F /  3.9 °C 29.58in /  1001.6hPa SE 2.1mph /  3.4km/h 10mph /  16.1km/h 93% 0.09in /  2.29mm 26 W/m2
12:34 40.8 °F /  4.9 °C 39 °F /  3.9 °C 29.58in /  1001.6hPa ESE 3.5mph /  5.6km/h 7mph /  11.3km/h 93% 0.09in /  2.29mm 32 W/m2
12:39 40.9 °F /  4.9 °C 39.1 °F /  3.9 °C 29.57in /  1001.2hPa ESE 4.4mph /  7.1km/h 8mph /  12.9km/h 93% 0.08in /  2.03mm 37 W/m2
12:44 41.1 °F /  5.1 °C 39.5 °F /  4.2 °C 29.56in /  1000.9hPa ESE 4.2mph /  6.8km/h 9mph /  14.5km/h 93.8% 0.07in /  1.78mm 37 W/m2
12:49 41.3 °F /  5.2 °C 39.7 °F /  4.3 °C 29.56in /  1000.9hPa East 4.3mph /  6.9km/h 10mph /  16.1km/h 93.8% 0.07in /  1.78mm 44 W/m2
12:54 41.4 °F /  5.2 °C 39.7 °F /  4.3 °C 29.55in /  1000.6hPa East 3.2mph /  5.1km/h 9mph /  14.5km/h 94% 0.07in /  1.78mm 47 W/m2
12:59 41.5 °F /  5.3 °C 39.8 °F /  4.3 °C 29.54in /  1000.2hPa East 3.6mph /  5.8km/h 10mph /  16.1km/h 94% 0.07in /  1.78mm 47 W/m2
13:04 41.5 °F /  5.3 °C 39.9 °F /  4.4 °C 29.54in /  1000.2hPa East 1.2mph /  1.9km/h 6mph /  9.7km/h 94% 0.06in /  1.52mm 54 W/m2
13:09 41.5 °F /  5.3 °C 39.9 °F /  4.4 °C 29.54in /  1000.2hPa ENE 0.2mph /  0.3km/h 3mph /  4.8km/h 94% 0.06in /  1.52mm 54 W/m2
13:14 41.5 °F /  5.3 °C 39.9 °F /  4.4 °C 29.54in /  1000.2hPa East 1.2mph /  1.9km/h 5mph /  8km/h 94% 0.06in /  1.52mm 39 W/m2
13:19 41.7 °F /  5.4 °C 40.1 °F /  4.5 °C 29.55in /  1000.6hPa East 0.6mph /  1km/h 5mph /  8km/h 94% 0.05in /  1.27mm 26 W/m2
13:24 41.7 °F /  5.4 °C 40.1 °F /  4.5 °C 29.55in /  1000.6hPa East 1.8mph /  2.9km/h 4mph /  6.4km/h 94% 0.04in /  1.02mm 51 W/m2
13:29 42 °F /  5.6 °C 40.4 °F /  4.7 °C 29.55in /  1000.6hPa East 0.6mph /  1km/h 4mph /  6.4km/h 94% 0.03in /  0.76mm 54 W/m2
13:34 42.1 °F /  5.6 °C 40.5 °F /  4.7 °C 29.55in /  1000.6hPa ESE 2.3mph /  3.7km/h 7mph /  11.3km/h 94% 0.03in /  0.76mm 74 W/m2
13:39 42.2 °F /  5.7 °C 40.6 °F /  4.8 °C 29.54in /  1000.2hPa ESE 2.2mph /  3.5km/h 6mph /  9.7km/h 94% 0.02in /  0.51mm 74 W/m2
13:44 42.3 °F /  5.7 °C 40.6 °F /  4.8 °C 29.54in /  1000.2hPa ESE 2.3mph /  3.7km/h 6mph /  9.7km/h 94% 0.02in /  0.51mm 72 W/m2
13:49 42.4 °F /  5.8 °C 40.7 °F /  4.8 °C 29.54in /  1000.2hPa ESE 1.7mph /  2.7km/h 5mph /  8km/h 94% 0.02in /  0.51mm 86 W/m2
13:54 42.4 °F /  5.8 °C 40.8 °F /  4.9 °C 29.54in /  1000.2hPa ESE 0.5mph /  0.8km/h 4mph /  6.4km/h 94% 0.01in /  0.25mm 86 W/m2
13:59 42.6 °F /  5.9 °C 41 °F /  5 °C 29.54in /  1000.2hPa ESE 0.5mph /  0.8km/h 2mph /  3.2km/h 94% 0.00in /  0mm 67 W/m2
14:04 42.8 °F /  6 °C 41.2 °F /  5.1 °C 29.54in /  1000.2hPa ESE 0.1mph /  0.2km/h 2mph /  3.2km/h 94% 0.00in /  0mm 70 W/m2
14:09 43 °F /  6.1 °C 41.4 °F /  5.2 °C 29.54in /  1000.2hPa Calm   1mph /  1.6km/h 94% 0.00in /  0mm 72 W/m2
14:14 43.1 °F /  6.2 °C 41.4 °F /  5.2 °C 29.54in /  1000.2hPa ESE 0.4mph /  0.6km/h 2mph /  3.2km/h 94% 0.00in /  0mm 83 W/m2
14:19 43.2 °F /  6.2 °C 41.5 °F /  5.3 °C 29.54in /  1000.2hPa Calm   2mph /  3.2km/h 94% 0.00in /  0mm 93 W/m2
14:24 43.3 °F /  6.3 °C 41.7 °F /  5.4 °C 29.54in /  1000.2hPa Calm     94% 0.00in /  0mm 137 W/m2
14:29 43.5 °F /  6.4 °C 41.9 °F /  5.5 °C 29.54in /  1000.2hPa Calm     94% 0.00in /  0mm 186 W/m2
14:34 43.9 °F /  6.6 °C 42.3 °F /  5.7 °C 29.54in /  1000.2hPa Calm     94% 0.00in /  0mm 230 W/m2
14:39 44.2 °F /  6.8 °C 42.9 °F /  6.1 °C 29.54in /  1000.2hPa ESE 0.3mph /  0.5km/h 2mph /  3.2km/h 94.9% 0.00in /  0mm 258 W/m2
14:44 44.4 °F /  6.9 °C 43.1 °F /  6.2 °C 29.54in /  1000.2hPa Calm   1mph /  1.6km/h 94.8% 0.00in /  0mm 251 W/m2
14:49 44.7 °F /  7.1 °C 43.1 °F /  6.2 °C 29.54in /  1000.2hPa Calm     94% 0.00in /  0mm 230 W/m2
14:54 44.6 °F /  7 °C 43 °F /  6.1 °C 29.54in /  1000.2hPa Calm   1mph /  1.6km/h 94.1% 0.00in /  0mm 141 W/m2
14:59 44.4 °F /  6.9 °C 43.1 °F /  6.2 °C 29.54in /  1000.2hPa ESE 0.4mph /  0.6km/h 2mph /  3.2km/h 94.6% 0.00in /  0mm 72 W/m2
15:04 44.4 °F /  6.9 °C 43.1 °F /  6.2 °C 29.54in /  1000.2hPa ESE 0.4mph /  0.6km/h 3mph /  4.8km/h 94.7% 0.00in /  0mm 67 W/m2
15:09 44.4 °F /  6.9 °C 43.1 °F /  6.2 °C 29.54in /  1000.2hPa ESE 2.3mph /  3.7km/h 4mph /  6.4km/h 94.7% 0.00in /  0mm 56 W/m2
15:14 44.2 °F /  6.8 °C 43 °F /  6.1 °C 29.54in /  1000.2hPa ESE 2.9mph /  4.7km/h 5mph /  8km/h 95% 0.00in /  0mm 49 W/m2
15:19 44.2 °F /  6.8 °C 43 °F /  6.1 °C 29.54in /  1000.2hPa NW 2.9mph /  4.7km/h 8mph /  12.9km/h 95% 0.00in /  0mm 67 W/m2
15:24 44.1 °F /  6.7 °C 42.6 °F /  5.9 °C 29.54in /  1000.2hPa West 3.9mph /  6.3km/h 8mph /  12.9km/h 94.5% 0.00in /  0mm 88 W/m2
15:29 44.1 °F /  6.7 °C 42.4 °F /  5.8 °C 29.54in /  1000.2hPa West 3.1mph /  5km/h 7mph /  11.3km/h 94% 0.00in /  0mm 90 W/m2
15:34 43.9 °F /  6.6 °C 42.3 °F /  5.7 °C 29.54in /  1000.2hPa WNW 4.1mph /  6.6km/h 8mph /  12.9km/h 94% 0.00in /  0mm 90 W/m2
15:39 43.9 °F /  6.6 °C 42.3 °F /  5.7 °C 29.54in /  1000.2hPa WNW 2.2mph /  3.5km/h 6mph /  9.7km/h 94% 0.00in /  0mm 83 W/m2
15:44 43.9 °F /  6.6 °C 42.3 °F /  5.7 °C 29.54in /  1000.2hPa WNW 1.2mph /  1.9km/h 6mph /  9.7km/h 94% 0.00in /  0mm 74 W/m2
15:49 43.9 °F /  6.6 °C 42.3 °F /  5.7 °C 29.54in /  1000.2hPa WNW 0.7mph /  1.1km/h 6mph /  9.7km/h 94% 0.00in /  0mm 69 W/m2
15:54 43.9 °F /  6.6 °C 42.3 °F /  5.7 °C 29.54in /  1000.2hPa WNW 1.9mph /  3.1km/h 7mph /  11.3km/h 94% 0.00in /  0mm 40 W/m2
15:59 43.9 °F /  6.6 °C 42.3 °F /  5.7 °C 29.54in /  1000.2hPa NW 3.2mph /  5.1km/h 8mph /  12.9km/h 94% 0.00in /  0mm 18 W/m2
16:04 43.7 °F /  6.5 °C 42.1 °F /  5.6 °C 29.54in /  1000.2hPa NW 3.4mph /  5.5km/h 7mph /  11.3km/h 94% 0.00in /  0mm 18 W/m2
16:09 43.5 °F /  6.4 °C 41.9 °F /  5.5 °C 29.54in /  1000.2hPa NW 2.1mph /  3.4km/h 5mph /  8km/h 94% 0.00in /  0mm 14 W/m2
16:14 43.3 °F /  6.3 °C 41.7 °F /  5.4 °C 29.54in /  1000.2hPa NW 2.1mph /  3.4km/h 7mph /  11.3km/h 94% 0.00in /  0mm 9 W/m2
16:19 43.2 °F /  6.2 °C 41.5 °F /  5.3 °C 29.54in /  1000.2hPa NW 2.6mph /  4.2km/h 5mph /  8km/h 94% 0.00in /  0mm 5 W/m2
16:24 43.2 °F /  6.2 °C 41.5 °F /  5.3 °C 29.54in /  1000.2hPa NW 1.6mph /  2.6km/h 6mph /  9.7km/h 94% 0.00in /  0mm 5 W/m2
16:29 43 °F /  6.1 °C 41.4 °F /  5.2 °C 29.55in /  1000.6hPa WNW 2.8mph /  4.5km/h 8mph /  12.9km/h 94% 0.00in /  0mm 0 W/m2
16:34 43 °F /  6.1 °C 41.4 °F /  5.2 °C 29.55in /  1000.6hPa NW 4.5mph /  7.2km/h 9mph /  14.5km/h 94% 0.00in /  0mm 0 W/m2
16:39 42.8 °F /  6 °C 41.2 °F /  5.1 °C 29.56in /  1000.9hPa NW 4mph /  6.4km/h 9mph /  14.5km/h 94% 0.00in /  0mm 0 W/m2
16:44 42.7 °F /  5.9 °C 41.1 °F /  5.1 °C 29.56in /  1000.9hPa NW 3.6mph /  5.8km/h 10mph /  16.1km/h 94% 0.00in /  0mm 0 W/m2
16:49 42.6 °F /  5.9 °C 41 °F /  5 °C 29.56in /  1000.9hPa NW 3.9mph /  6.3km/h 10mph /  16.1km/h 94% 0.00in /  0mm 0 W/m2
16:54 42.5 °F /  5.8 °C 40.9 °F /  4.9 °C 29.56in /  1000.9hPa NW 4mph /  6.4km/h 9mph /  14.5km/h 94% 0.00in /  0mm 0 W/m2
16:59 42.4 °F /  5.8 °C 40.8 °F /  4.9 °C 29.56in /  1000.9hPa NW 2.6mph /  4.2km/h 9mph /  14.5km/h 94% 0.00in /  0mm 0 W/m2
17:04 42.3 °F /  5.7 °C 40.7 °F /  4.8 °C 29.56in /  1000.9hPa NW 1.8mph /  2.9km/h 6mph /  9.7km/h 94% 0.00in /  0mm 0 W/m2
17:09 42.3 °F /  5.7 °C 40.7 °F /  4.8 °C 29.57in /  1001.2hPa NW 2.2mph /  3.5km/h 6mph /  9.7km/h 94% 0.00in /  0mm 0 W/m2
17:14 42.3 °F /  5.7 °C 40.7 °F /  4.8 °C 29.57in /  1001.2hPa NW 0.8mph /  1.3km/h 4mph /  6.4km/h 94% 0.00in /  0mm 0 W/m2
17:19 42.4 °F /  5.8 °C 40.8 °F /  4.9 °C 29.57in /  1001.2hPa NW 0.9mph /  1.4km/h 9mph /  14.5km/h 94% 0.00in /  0mm 0 W/m2
17:24 42.3 °F /  5.7 °C 40.6 °F /  4.8 °C 29.57in /  1001.2hPa NW 5.5mph /  8.9km/h 9mph /  14.5km/h 94% 0.00in /  0mm 0 W/m2
17:29 42.3 °F /  5.7 °C 40.6 °F /  4.8 °C 29.57in /  1001.2hPa WNW 3.7mph /  6km/h 9mph /  14.5km/h 94% 0.00in /  0mm 0 W/m2
17:34 42.3 °F /  5.7 °C 40.6 °F /  4.8 °C 29.57in /  1001.2hPa NW 2.3mph /  3.7km/h 7mph /  11.3km/h 94% 0.00in /  0mm 0 W/m2
17:39 42.3 °F /  5.7 °C 40.6 °F /  4.8 °C 29.57in /  1001.2hPa NW 1.7mph /  2.7km/h 6mph /  9.7km/h 94% 0.00in /  0mm 0 W/m2
17:44 42.3 °F /  5.7 °C 40.6 °F /  4.8 °C 29.57in /  1001.2hPa NW 1.6mph /  2.6km/h 5mph /  8km/h 94% 0.00in /  0mm 0 W/m2
17:49 42.3 °F /  5.7 °C 40.6 °F /  4.8 °C 29.57in /  1001.2hPa NW 0.6mph /  1km/h 3mph /  4.8km/h 94% 0.00in /  0mm 0 W/m2
17:54 42.3 °F /  5.7 °C 40.6 °F /  4.8 °C 29.57in /  1001.2hPa NW 0.6mph /  1km/h 2mph /  3.2km/h 94% 0.00in /  0mm 0 W/m2
17:59 42.1 °F /  5.6 °C 40.5 °F /  4.7 °C 29.57in /  1001.2hPa NW 0.1mph /  0.2km/h 2mph /  3.2km/h 94% 0.00in /  0mm 0 W/m2
18:04 41.9 °F /  5.5 °C 40.3 °F /  4.6 °C 29.57in /  1001.2hPa NW 1.8mph /  2.9km/h 5mph /  8km/h 94% 0.00in /  0mm 0 W/m2
18:09 41.6 °F /  5.3 °C 40 °F /  4.4 °C 29.57in /  1001.2hPa NW 1.5mph /  2.4km/h 4mph /  6.4km/h 94% 0.00in /  0mm 0 W/m2
18:14 41.6 °F /  5.3 °C 40 °F /  4.4 °C 29.57in /  1001.2hPa NW 1.6mph /  2.6km/h 4mph /  6.4km/h 94% 0.00in /  0mm 0 W/m2
18:19 41.7 °F /  5.4 °C 40.1 °F /  4.5 °C 29.57in /  1001.2hPa NW 0.5mph /  0.8km/h 4mph /  6.4km/h 94% 0.00in /  0mm 0 W/m2
18:24 41.7 °F /  5.4 °C 40.1 °F /  4.5 °C 29.57in /  1001.2hPa NW 1.7mph /  2.7km/h 5mph /  8km/h 94% 0.00in /  0mm 0 W/m2
18:29 41.6 °F /  5.3 °C 40 °F /  4.4 °C 29.58in /  1001.6hPa Calm   5mph /  8km/h 94% 0.00in /  0mm 0 W/m2
18:34 41.7 °F /  5.4 °C 40.1 °F /  4.5 °C 29.57in /  1001.2hPa NW 0.3mph /  0.5km/h 3mph /  4.8km/h 94% 0.00in /  0mm 0 W/m2
18:39 41.7 °F /  5.4 °C 40.1 °F /  4.5 °C 29.58in /  1001.6hPa NW 0.3mph /  0.5km/h 2mph /  3.2km/h 94% 0.00in /  0mm 0 W/m2
18:44 41.7 °F /  5.4 °C 40.1 °F /  4.5 °C 29.58in /  1001.6hPa NW 0.6mph /  1km/h 3mph /  4.8km/h 94% 0.00in /  0mm 0 W/m2
18:49 41.7 °F /  5.4 °C 40.1 °F /  4.5 °C 29.58in /  1001.6hPa NW 2.4mph /  3.9km/h 5mph /  8km/h 94% 0.00in /  0mm 0 W/m2
18:54 41.7 °F /  5.4 °C 40.1 °F /  4.5 °C 29.58in /  1001.6hPa NW 2.2mph /  3.5km/h 5mph /  8km/h 94% 0.00in /  0mm 0 W/m2
18:59 41.7 °F /  5.4 °C 40.1 °F /  4.5 °C 29.57in /  1001.2hPa NW 2mph /  3.2km/h 5mph /  8km/h 94% 0.00in /  0mm 0 W/m2
19:04 41.7 °F /  5.4 °C 40.1 °F /  4.5 °C 29.57in /  1001.2hPa WNW 2.2mph /  3.5km/h 5mph /  8km/h 94% 0.00in /  0mm 0 W/m2
19:09 41.7 °F /  5.4 °C 40.1 °F /  4.5 °C 29.58in /  1001.6hPa WNW 2.5mph /  4km/h 6mph /  9.7km/h 94% 0.00in /  0mm 0 W/m2
19:14 41.7 °F /  5.4 °C 40.1 °F /  4.5 °C 29.58in /  1001.6hPa WNW 2.5mph /  4km/h 6mph /  9.7km/h 94% 0.00in /  0mm 0 W/m2
19:19 41.6 °F /  5.3 °C 40 °F /  4.4 °C 29.58in /  1001.6hPa WNW 2.8mph /  4.5km/h 5mph /  8km/h 94% 0.00in /  0mm 0 W/m2
19:24 41.6 °F /  5.3 °C 40 °F /  4.4 °C 29.57in /  1001.2hPa WNW 3.1mph /  5km/h 5mph /  8km/h 94% 0.00in /  0mm 0 W/m2
19:29 41.6 °F /  5.3 °C 40 °F /  4.4 °C 29.57in /  1001.2hPa WNW 3.1mph /  5km/h 5mph /  8km/h 94% 0.00in /  0mm 0 W/m2
19:34 41.6 °F /  5.3 °C 40 °F /  4.4 °C 29.58in /  1001.6hPa WNW 1.8mph /  2.9km/h 5mph /  8km/h 94% 0.00in /  0mm 0 W/m2
19:39 41.7 °F /  5.4 °C 40.1 °F /  4.5 °C 29.58in /  1001.6hPa WNW 1.2mph /  1.9km/h 3mph /  4.8km/h 94% 0.00in /  0mm 0 W/m2
19:44 41.7 °F /  5.4 °C 40.1 °F /  4.5 °C 29.58in /  1001.6hPa WNW 0.6mph /  1km/h 3mph /  4.8km/h 94% 0.00in /  0mm 0 W/m2
19:49 41.7 °F /  5.4 °C 40.1 °F /  4.5 °C 29.58in /  1001.6hPa WNW 1.3mph /  2.1km/h 4mph /  6.4km/h 94% 0.00in /  0mm 0 W/m2
19:54 41.7 °F /  5.4 °C 40.1 °F /  4.5 °C 29.58in /  1001.6hPa WNW 1.5mph /  2.4km/h 5mph /  8km/h 94% 0.00in /  0mm 0 W/m2
19:59 41.7 °F /  5.4 °C 40.1 °F /  4.5 °C 29.58in /  1001.6hPa WNW 1.8mph /  2.9km/h 4mph /  6.4km/h 94% 0.00in /  0mm 0 W/m2
20:04 41.7 °F /  5.4 °C 40.1 °F /  4.5 °C 29.58in /  1001.6hPa WNW 2.3mph /  3.7km/h 6mph /  9.7km/h 94% 0.00in /  0mm 0 W/m2
20:09 41.8 °F /  5.4 °C 40.2 °F /  4.6 °C 29.58in /  1001.6hPa WNW 1.2mph /  1.9km/h 4mph /  6.4km/h 94% 0.00in /  0mm 0 W/m2
20:14 41.9 °F /  5.5 °C 40.3 °F /  4.6 °C 29.58in /  1001.6hPa WNW 1mph /  1.6km/h 4mph /  6.4km/h 94% 0.00in /  0mm 0 W/m2
20:19 41.9 °F /  5.5 °C 40.3 °F /  4.6 °C 29.58in /  1001.6hPa WNW 1.7mph /  2.7km/h 5mph /  8km/h 94% 0.00in /  0mm 0 W/m2
20:24 41.9 °F /  5.5 °C 40.3 °F /  4.6 °C 29.58in /  1001.6hPa WNW 0.6mph /  1km/h 3mph /  4.8km/h 94% 0.00in /  0mm 0 W/m2
20:29 41.9 °F /  5.5 °C 40.3 °F /  4.6 °C 29.58in /  1001.6hPa WNW 2mph /  3.2km/h 5mph /  8km/h 94% 0.00in /  0mm 0 W/m2
20:34 41.9 °F /  5.5 °C 40.3 °F /  4.6 °C 29.58in /  1001.6hPa WNW 2.1mph /  3.4km/h 6mph /  9.7km/h 94% 0.00in /  0mm 0 W/m2
20:39 41.9 °F /  5.5 °C 40.3 °F /  4.6 °C 29.58in /  1001.6hPa WNW 0.7mph /  1.1km/h 4mph /  6.4km/h 94% 0.00in /  0mm 0 W/m2
20:44 41.9 °F /  5.5 °C 40.3 °F /  4.6 °C 29.58in /  1001.6hPa WNW 0.2mph /  0.3km/h 3mph /  4.8km/h 94% 0.00in /  0mm 0 W/m2
20:49 41.7 °F /  5.4 °C 40.1 °F /  4.5 °C 29.58in /  1001.6hPa WNW 1.2mph /  1.9km/h 5mph /  8km/h 94% 0.00in /  0mm 0 W/m2
20:54 41.7 °F /  5.4 °C 40.1 °F /  4.5 °C 29.58in /  1001.6hPa WNW 1.7mph /  2.7km/h 6mph /  9.7km/h 94% 0.00in /  0mm 0 W/m2
20:59 41.7 °F /  5.4 °C 40.1 °F /  4.5 °C 29.58in /  1001.6hPa WNW 1.1mph /  1.8km/h 3mph /  4.8km/h 94% 0.00in /  0mm 0 W/m2
21:04 41.6 °F /  5.3 °C 40 °F /  4.4 °C 29.58in /  1001.6hPa NW 2.4mph /  3.9km/h 7mph /  11.3km/h 94% 0.00in /  0mm 0 W/m2
21:09 41.5 °F /  5.3 °C 39.9 °F /  4.4 °C 29.58in /  1001.6hPa NNW 2.6mph /  4.2km/h 7mph /  11.3km/h 94% 0.00in /  0mm 0 W/m2
21:14 41.5 °F /  5.3 °C 39.8 °F /  4.3 °C 29.59in /  1001.9hPa NW 2.8mph /  4.5km/h 7mph /  11.3km/h 94% 0.00in /  0mm 0 W/m2
21:19 41.5 °F /  5.3 °C 39.8 °F /  4.3 °C 29.59in /  1001.9hPa NW 2.3mph /  3.7km/h 6mph /  9.7km/h 94% 0.00in /  0mm 0 W/m2
21:24 41.5 °F /  5.3 °C 39.9 °F /  4.4 °C 29.59in /  1001.9hPa NW 2.9mph /  4.7km/h 6mph /  9.7km/h 94% 0.00in /  0mm 0 W/m2
21:29 41.5 °F /  5.3 °C 39.9 °F /  4.4 °C 29.59in /  1001.9hPa NW 3.2mph /  5.1km/h 7mph /  11.3km/h 94% 0.00in /  0mm 0 W/m2
21:34 41.5 °F /  5.3 °C 39.9 °F /  4.4 °C 29.59in /  1001.9hPa NW 2.2mph /  3.5km/h 7mph /  11.3km/h 94% 0.00in /  0mm 0 W/m2
21:39 41.5 °F /  5.3 °C 39.9 °F /  4.4 °C 29.59in /  1001.9hPa NW 2.1mph /  3.4km/h 7mph /  11.3km/h 94% 0.00in /  0mm 0 W/m2
21:44 41.7 °F /  5.4 °C 40.1 °F /  4.5 °C 29.59in /  1001.9hPa NW 2mph /  3.2km/h 5mph /  8km/h 94% 0.00in /  0mm 0 W/m2
21:49 41.7 °F /  5.4 °C 40.1 °F /  4.5 °C 29.59in /  1001.9hPa NW 1mph /  1.6km/h 4mph /  6.4km/h 94% 0.00in /  0mm 0 W/m2
21:54 41.6 °F /  5.3 °C 40 °F /  4.4 °C 29.59in /  1001.9hPa NNW 4.5mph /  7.2km/h 9mph /  14.5km/h 94% 0.00in /  0mm 0 W/m2
21:59 41.4 °F /  5.2 °C 39.8 °F /  4.3 °C 29.59in /  1001.9hPa NNW 3.7mph /  6km/h 8mph /  12.9km/h 94% 0.00in /  0mm 0 W/m2
22:04 41.4 °F /  5.2 °C 39.7 °F /  4.3 °C 29.59in /  1001.9hPa North 2mph /  3.2km/h 7mph /  11.3km/h 94% 0.00in /  0mm 0 W/m2
22:09 41.3 °F /  5.2 °C 39.6 °F /  4.2 °C 29.59in /  1001.9hPa North 4.2mph /  6.8km/h 8mph /  12.9km/h 94% 0.00in /  0mm 0 W/m2
22:14 41.2 °F /  5.1 °C 39.6 °F /  4.2 °C 29.59in /  1001.9hPa NNE 4.6mph /  7.4km/h 10mph /  16.1km/h 94% 0.00in /  0mm 0 W/m2
22:19 41 °F /  5 °C 39.4 °F /  4.1 °C 29.59in /  1001.9hPa North 4.7mph /  7.6km/h 10mph /  16.1km/h 94% 0.00in /  0mm 0 W/m2
22:24 41 °F /  5 °C 39.4 °F /  4.1 °C 29.59in /  1001.9hPa North 3.2mph /  5.1km/h 8mph /  12.9km/h 94% 0.00in /  0mm 0 W/m2
22:29 41 °F /  5 °C 39.4 °F /  4.1 °C 29.59in /  1001.9hPa North 4.1mph /  6.6km/h 12mph /  19.3km/h 94% 0.00in /  0mm 0 W/m2
22:34 40.9 °F /  4.9 °C 39.3 °F /  4.1 °C 29.59in /  1001.9hPa NNW 3.8mph /  6.1km/h 9mph /  14.5km/h 94% 0.00in /  0mm 0 W/m2
22:39 40.9 °F /  4.9 °C 39.3 °F /  4.1 °C 29.59in /  1001.9hPa NNW 2.8mph /  4.5km/h 9mph /  14.5km/h 94% 0.00in /  0mm 0 W/m2
22:44 41 °F /  5 °C 39.4 °F /  4.1 °C 29.60in /  1002.3hPa North 2.5mph /  4km/h 7mph /  11.3km/h 94% 0.00in /  0mm 0 W/m2
22:49 41.1 °F /  5.1 °C 39.5 °F /  4.2 °C 29.60in /  1002.3hPa NNW 1.5mph /  2.4km/h 8mph /  12.9km/h 94% 0.00in /  0mm 0 W/m2
22:54 41.1 °F /  5.1 °C 39.5 °F /  4.2 °C 29.60in /  1002.3hPa NNW 1.4mph /  2.3km/h 4mph /  6.4km/h 94% 0.00in /  0mm 0 W/m2
22:59 41.2 °F /  5.1 °C 39.6 °F /  4.2 °C 29.60in /  1002.3hPa North 3.8mph /  6.1km/h 10mph /  16.1km/h 94% 0.00in /  0mm 0 W/m2
23:04 41.2 °F /  5.1 °C 39.6 °F /  4.2 °C 29.60in /  1002.3hPa NNW 4.4mph /  7.1km/h 11mph /  17.7km/h 94% 0.00in /  0mm 0 W/m2
23:09 41.3 °F /  5.2 °C 39.6 °F /  4.2 °C 29.60in /  1002.3hPa NNW 5mph /  8km/h 9mph /  14.5km/h 94% 0.00in /  0mm 0 W/m2
23:14 41.3 °F /  5.2 °C 39.7 °F /  4.3 °C 29.61in /  1002.6hPa NNW 4.4mph /  7.1km/h 9mph /  14.5km/h 94% 0.00in /  0mm 0 W/m2
23:19 41.4 °F /  5.2 °C 39.7 °F /  4.3 °C 29.61in /  1002.6hPa NNW 5.5mph /  8.9km/h 10mph /  16.1km/h 94% 0.00in /  0mm 0 W/m2
23:24 41.4 °F /  5.2 °C 39.7 °F /  4.3 °C 29.61in /  1002.6hPa NNW 4.4mph /  7.1km/h 10mph /  16.1km/h 94% 0.00in /  0mm 0 W/m2
23:29 41.4 °F /  5.2 °C 39.7 °F /  4.3 °C 29.61in /  1002.6hPa NNW 2.4mph /  3.9km/h 9mph /  14.5km/h 94% 0.00in /  0mm 0 W/m2
23:34 41.4 °F /  5.2 °C 39.7 °F /  4.3 °C 29.61in /  1002.6hPa NNW 4.1mph /  6.6km/h 10mph /  16.1km/h 94% 0.00in /  0mm 0 W/m2
23:39 41.4 °F /  5.2 °C 39.7 °F /  4.3 °C 29.61in /  1002.6hPa NW 3.1mph /  5km/h 11mph /  17.7km/h 94% 0.00in /  0mm 0 W/m2
23:44 41.4 °F /  5.2 °C 39.7 °F /  4.3 °C 29.62in /  1002.9hPa North 3.1mph /  5km/h 8mph /  12.9km/h 94% 0.00in /  0mm 0 W/m2
23:49 41.4 °F /  5.2 °C 39.7 °F /  4.3 °C 29.62in /  1002.9hPa NNW 3.1mph /  5km/h 8mph /  12.9km/h 94% 0.00in /  0mm 0 W/m2
23:54 41.4 °F /  5.2 °C 39.7 °F /  4.3 °C 29.61in /  1002.6hPa NW 2.7mph /  4.3km/h 8mph /  12.9km/h 94% 0.00in /  0mm 0 W/m2
23:59 41.4 °F /  5.2 °C 39.7 °F /  4.3 °C 29.62in /  1002.9hPa NW 3.1mph /  5km/h 9mph /  14.5km/h 94% 0.00in /  0mm 0 W/m2
Bath Spa Weather
Compliments of Weather Underground - 2 mb